Aviation Digital Data Service (ADDS)

Output produced by METARs form (1455 UTC 22 April 2019)
found at http://www.aviationweather.gov/metar/data/
 
METAR text: KVNY 221451Z 00000KT 10SM CLR 12/08 A3001 RMK AO2 SLP158 T01220083 53010
Conditions at: KVNY (VAN NUYS , CA, US) observed 1451 UTC 22 April 2019
Temperature: 12.2°C (54°F)
Dewpoint: 8.3°C (47°F) [RH = 77%]
Pressure (altimeter): 30.01 inches Hg (1016.3 mb)
[Sea-level pressure: 1015.8 mb]
Winds: calm
Visibility: 10 or more miles (16+ km)
Ceiling: at least 12,000 feet AGL
Clouds: sky clear below 12,000 feet AGL
Weather: no significant weather observed at this time

METAR text: KVNY 221351Z 00000KT 10SM CLR 12/08 A2999 RMK AO2 SLP151 T01170078
Conditions at: KVNY (VAN NUYS , CA, US) observed 1351 UTC 22 April 2019
Temperature: 11.7°C (53°F)
Dewpoint: 7.8°C (46°F) [RH = 77%]
Pressure (altimeter): 29.99 inches Hg (1015.7 mb)
[Sea-level pressure: 1015.1 mb]
Winds: calm
Visibility: 10 or more miles (16+ km)
Ceiling: at least 12,000 feet AGL
Clouds: sky clear below 12,000 feet AGL
Weather: no significant weather observed at this time

METAR text: KVNY 221251Z 00000KT 10SM CLR 11/08 A2998 RMK AO2 SLP148 T01110078
Conditions at: KVNY (VAN NUYS , CA, US) observed 1251 UTC 22 April 2019
Temperature: 11.1°C (52°F)
Dewpoint: 7.8°C (46°F) [RH = 80%]
Pressure (altimeter): 29.98 inches Hg (1015.3 mb)
[Sea-level pressure: 1014.8 mb]
Winds: calm
Visibility: 10 or more miles (16+ km)
Ceiling: at least 12,000 feet AGL
Clouds: sky clear below 12,000 feet AGL
Weather: no significant weather observed at this time

METAR text: KVNY 221151Z AUTO 00000KT 10SM CLR 11/08 A2998 RMK AO2 SLP147 T01110083 10139 20111 56008
Conditions at: KVNY (VAN NUYS , CA, US) observed 1151 UTC 22 April 2019
Temperature: 11.1°C (52°F)
Dewpoint: 8.3°C (47°F) [RH = 83%]
Pressure (altimeter): 29.98 inches Hg (1015.3 mb)
[Sea-level pressure: 1014.7 mb]
Winds: calm
Visibility: 10 or more miles (16+ km)
Ceiling: at least 12,000 feet AGL
Clouds: sky clear below 12,000 feet AGL
Weather: automated observation with no human augmentation;
there may or may not be significant weather present at this time

METAR text: KVNY 221051Z AUTO 00000KT 10SM CLR 12/08 A2999 RMK AO2 SLP149 T01170078
Conditions at: KVNY (VAN NUYS , CA, US) observed 1051 UTC 22 April 2019
Temperature: 11.7°C (53°F)
Dewpoint: 7.8°C (46°F) [RH = 77%]
Pressure (altimeter): 29.99 inches Hg (1015.7 mb)
[Sea-level pressure: 1014.9 mb]
Winds: calm
Visibility: 10 or more miles (16+ km)
Ceiling: at least 12,000 feet AGL
Clouds: sky clear below 12,000 feet AGL
Weather: automated observation with no human augmentation;
there may or may not be significant weather present at this time

METAR text: KVNY 220951Z AUTO 00000KT 10SM CLR 12/09 A2999 RMK AO2 SLP148 T01220094
Conditions at: KVNY (VAN NUYS , CA, US) observed 0951 UTC 22 April 2019
Temperature: 12.2°C (54°F)
Dewpoint: 9.4°C (49°F) [RH = 83%]
Pressure (altimeter): 29.99 inches Hg (1015.7 mb)
[Sea-level pressure: 1014.8 mb]
Winds: calm
Visibility: 10 or more miles (16+ km)
Ceiling: at least 12,000 feet AGL
Clouds: sky clear below 12,000 feet AGL
Weather: automated observation with no human augmentation;
there may or may not be significant weather present at this time

METAR text: KVNY 220851Z AUTO 17005KT 10SM BKN110 12/08 A3000 RMK AO2 SLP155 T01170083 50001
Conditions at: KVNY (VAN NUYS , CA, US) observed 0851 UTC 22 April 2019
Temperature: 11.7°C (53°F)
Dewpoint: 8.3°C (47°F) [RH = 80%]
Pressure (altimeter): 30.00 inches Hg (1016.0 mb)
[Sea-level pressure: 1015.5 mb]
Winds: from the S (170 degrees) at 6 MPH (5 knots; 2.6 m/s)
Visibility: 10 or more miles (16+ km)
Ceiling: 11000 feet AGL
Clouds: broken clouds at 11000 feet AGL
Weather: automated observation with no human augmentation;
there may or may not be significant weather present at this time

METAR text: KVNY 220751Z AUTO 08003KT 10SM CLR 13/08 A3001 RMK AO2 SLP157 T01280083 402220117
Conditions at: KVNY (VAN NUYS , CA, US) observed 0751 UTC 22 April 2019
Temperature: 12.8°C (55°F)
Dewpoint: 8.3°C (47°F) [RH = 74%]
Pressure (altimeter): 30.01 inches Hg (1016.3 mb)
[Sea-level pressure: 1015.7 mb]
Winds: from the E (80 degrees) at 3 MPH (3 knots; 1.5 m/s)
Visibility: 10 or more miles (16+ km)
Ceiling: at least 12,000 feet AGL
Clouds: sky clear below 12,000 feet AGL
Weather: automated observation with no human augmentation;
there may or may not be significant weather present at this time

METAR text: KVNY 220651Z AUTO 10005KT 10SM CLR 13/08 A3001 RMK AO2 SLP157 T01330083
Conditions at: KVNY (VAN NUYS , CA, US) observed 0651 UTC 22 April 2019
Temperature: 13.3°C (56°F)
Dewpoint: 8.3°C (47°F) [RH = 72%]
Pressure (altimeter): 30.01 inches Hg (1016.3 mb)
[Sea-level pressure: 1015.7 mb]
Winds: from the E (100 degrees) at 6 MPH (5 knots; 2.6 m/s)
Visibility: 10 or more miles (16+ km)
Ceiling: at least 12,000 feet AGL
Clouds: sky clear below 12,000 feet AGL
Weather: automated observation with no human augmentation;
there may or may not be significant weather present at this time

METAR text: KVNY 220551Z AUTO 12003KT 10SM CLR 14/08 A3000 RMK AO2 SLP154 T01390078 10211 20133 53016
Conditions at: KVNY (VAN NUYS , CA, US) observed 0551 UTC 22 April 2019
Temperature: 13.9°C (57°F)
Dewpoint: 7.8°C (46°F) [RH = 67%]
Pressure (altimeter): 30.00 inches Hg (1016.0 mb)
[Sea-level pressure: 1015.4 mb]
Winds: from the ESE (120 degrees) at 3 MPH (3 knots; 1.5 m/s)
Visibility: 10 or more miles (16+ km)
Ceiling: at least 12,000 feet AGL
Clouds: sky clear below 12,000 feet AGL
Weather: automated observation with no human augmentation;
there may or may not be significant weather present at this time

METAR text: KVNY 220451Z 13004KT 10SM CLR 14/07 A2998 RMK AO2 SLP148 T01440072
Conditions at: KVNY (VAN NUYS , CA, US) observed 0451 UTC 22 April 2019
Temperature: 14.4°C (58°F)
Dewpoint: 7.2°C (45°F) [RH = 62%]
Pressure (altimeter): 29.98 inches Hg (1015.3 mb)
[Sea-level pressure: 1014.8 mb]
Winds: from the SE (130 degrees) at 5 MPH (4 knots; 2.1 m/s)
Visibility: 10 or more miles (16+ km)
Ceiling: at least 12,000 feet AGL
Clouds: sky clear below 12,000 feet AGL
Weather: no significant weather observed at this time

METAR text: KVNY 220351Z 11005KT 10SM CLR 15/07 A2997 RMK AO2 SLP144 T01500067
Conditions at: KVNY (VAN NUYS , CA, US) observed 0351 UTC 22 April 2019
Temperature: 15.0°C (59°F)
Dewpoint: 6.7°C (44°F) [RH = 58%]
Pressure (altimeter): 29.97 inches Hg (1015.0 mb)
[Sea-level pressure: 1014.4 mb]
Winds: from the ESE (110 degrees) at 6 MPH (5 knots; 2.6 m/s)
Visibility: 10 or more miles (16+ km)
Ceiling: at least 12,000 feet AGL
Clouds: sky clear below 12,000 feet AGL
Weather: no significant weather observed at this time

METAR text: KVNY 220251Z 25003KT 10SM CLR 17/08 A2995 RMK AO2 SLP138 T01720078 53006
Conditions at: KVNY (VAN NUYS , CA, US) observed 0251 UTC 22 April 2019
Temperature: 17.2°C (63°F)
Dewpoint: 7.8°C (46°F) [RH = 54%]
Pressure (altimeter): 29.95 inches Hg (1014.3 mb)
[Sea-level pressure: 1013.8 mb]
Winds: from the WSW (250 degrees) at 3 MPH (3 knots; 1.5 m/s)
Visibility: 10 or more miles (16+ km)
Ceiling: at least 12,000 feet AGL
Clouds: sky clear below 12,000 feet AGL
Weather: no significant weather observed at this time

METAR text: KVNY 220151Z 27004KT 10SM CLR 18/08 A2995 RMK AO2 SLP135 T01830078
Conditions at: KVNY (VAN NUYS , CA, US) observed 0151 UTC 22 April 2019
Temperature: 18.3°C (65°F)
Dewpoint: 7.8°C (46°F) [RH = 50%]
Pressure (altimeter): 29.95 inches Hg (1014.3 mb)
[Sea-level pressure: 1013.5 mb]
Winds: from the W (270 degrees) at 5 MPH (4 knots; 2.1 m/s)
Visibility: 10 or more miles (16+ km)
Ceiling: at least 12,000 feet AGL
Clouds: sky clear below 12,000 feet AGL
Weather: no significant weather observed at this time

METAR text: KVNY 220051Z VRB06KT 10SM FEW060 20/08 A2994 RMK AO2 SLP133 T02000078
Conditions at: KVNY (VAN NUYS , CA, US) observed 0051 UTC 22 April 2019
Temperature: 20.0°C (68°F)
Dewpoint: 7.8°C (46°F) [RH = 45%]
Pressure (altimeter): 29.94 inches Hg (1014.0 mb)
[Sea-level pressure: 1013.3 mb]
Winds: variable direction winds at 7 MPH (6 knots; 3.1 m/s)
Visibility: 10 or more miles (16+ km)
Ceiling: at least 12,000 feet AGL
Clouds: few clouds at 6000 feet AGL
Weather: no significant weather observed at this time

METAR text: KVNY 212351Z 19007KT 10SM FEW060 21/08 A2993 RMK AO2 SLP132 T02060083 10222 20161 56015
Conditions at: KVNY (VAN NUYS , CA, US) observed 2351 UTC 21 April 2019
Temperature: 20.6°C (69°F)
Dewpoint: 8.3°C (47°F) [RH = 45%]
Pressure (altimeter): 29.93 inches Hg (1013.6 mb)
[Sea-level pressure: 1013.2 mb]
Winds: from the S (190 degrees) at 8 MPH (7 knots; 3.6 m/s)
Visibility: 10 or more miles (16+ km)
Ceiling: at least 12,000 feet AGL
Clouds: few clouds at 6000 feet AGL
Weather: no significant weather observed at this time

METAR text: KVNY 212251Z VRB06KT 10SM SCT046 21/08 A2994 RMK AO2 SLP132 T02110083
Conditions at: KVNY (VAN NUYS , CA, US) observed 2251 UTC 21 April 2019
Temperature: 21.1°C (70°F)
Dewpoint: 8.3°C (47°F) [RH = 44%]
Pressure (altimeter): 29.94 inches Hg (1014.0 mb)
[Sea-level pressure: 1013.2 mb]
Winds: variable direction winds at 7 MPH (6 knots; 3.1 m/s)
Visibility: 10 or more miles (16+ km)
Ceiling: at least 12,000 feet AGL
Clouds: scattered clouds at 4600 feet AGL
Weather: no significant weather observed at this time

METAR text: KVNY 212151Z VRB06KT 10SM CLR 22/09 A2996 RMK AO2 SLP138 T02170089
Conditions at: KVNY (VAN NUYS , CA, US) observed 2151 UTC 21 April 2019
Temperature: 21.7°C (71°F)
Dewpoint: 8.9°C (48°F) [RH = 44%]
Pressure (altimeter): 29.96 inches Hg (1014.6 mb)
[Sea-level pressure: 1013.8 mb]
Winds: variable direction winds at 7 MPH (6 knots; 3.1 m/s)
Visibility: 10 or more miles (16+ km)
Ceiling: at least 12,000 feet AGL
Clouds: sky clear below 12,000 feet AGL
Weather: no significant weather observed at this time

METAR text: KVNY 212051Z 21003KT 10SM FEW040 20/08 A2998 RMK AO2 SLP146 T02000078 58015
Conditions at: KVNY (VAN NUYS , CA, US) observed 2051 UTC 21 April 2019
Temperature: 20.0°C (68°F)
Dewpoint: 7.8°C (46°F) [RH = 45%]
Pressure (altimeter): 29.98 inches Hg (1015.3 mb)
[Sea-level pressure: 1014.6 mb]
Winds: from the SSW (210 degrees) at 3 MPH (3 knots; 1.5 m/s)
Visibility: 10 or more miles (16+ km)
Ceiling: at least 12,000 feet AGL
Clouds: few clouds at 4000 feet AGL
Weather: no significant weather observed at this time

METAR text: KVNY 211951Z 14004KT 10SM SCT040 20/08 A3000 RMK AO2 SLP152 T02000078
Conditions at: KVNY (VAN NUYS , CA, US) observed 1951 UTC 21 April 2019
Temperature: 20.0°C (68°F)
Dewpoint: 7.8°C (46°F) [RH = 45%]
Pressure (altimeter): 30.00 inches Hg (1016.0 mb)
[Sea-level pressure: 1015.2 mb]
Winds: from the SE (140 degrees) at 5 MPH (4 knots; 2.1 m/s)
Visibility: 10 or more miles (16+ km)
Ceiling: at least 12,000 feet AGL
Clouds: scattered clouds at 4000 feet AGL
Weather: no significant weather observed at this time

METAR text: KVNY 211851Z 21006KT 10SM BKN040 18/08 A3001 RMK AO2 SLP158 T01830078
Conditions at: KVNY (VAN NUYS , CA, US) observed 1851 UTC 21 April 2019
Temperature: 18.3°C (65°F)
Dewpoint: 7.8°C (46°F) [RH = 50%]
Pressure (altimeter): 30.01 inches Hg (1016.3 mb)
[Sea-level pressure: 1015.8 mb]
Winds: from the SSW (210 degrees) at 7 MPH (6 knots; 3.1 m/s)
Visibility: 10 or more miles (16+ km)
Ceiling: 4000 feet AGL
Clouds: broken clouds at 4000 feet AGL
Weather: no significant weather observed at this time

METAR text: KVNY 211751Z VRB03KT 10SM SCT035 17/07 A3002 RMK AO2 SLP161 T01670072 10178 20117 50004
Conditions at: KVNY (VAN NUYS , CA, US) observed 1751 UTC 21 April 2019
Temperature: 16.7°C (62°F)
Dewpoint: 7.2°C (45°F) [RH = 53%]
Pressure (altimeter): 30.02 inches Hg (1016.7 mb)
[Sea-level pressure: 1016.1 mb]
Winds: variable direction winds at 3 MPH (3 knots; 1.5 m/s)
Visibility: 10 or more miles (16+ km)
Ceiling: at least 12,000 feet AGL
Clouds: scattered clouds at 3500 feet AGL
Weather: no significant weather observed at this time

METAR text: KVNY 211653Z 18004KT 10SM SCT021 BKN038 14/09 A3002 RMK AO2 T01440089
Conditions at: KVNY (VAN NUYS , CA, US) observed 1653 UTC 21 April 2019
Temperature: 14.4°C (58°F)
Dewpoint: 8.9°C (48°F) [RH = 70%]
Pressure (altimeter): 30.02 inches Hg (1016.7 mb)
Winds: from the S (180 degrees) at 5 MPH (4 knots; 2.1 m/s)
Visibility: 10 or more miles (16+ km)
Ceiling: 3800 feet AGL
Clouds: scattered clouds at 2100 feet AGL
broken clouds at 3800 feet AGL
Weather: no significant weather observed at this time

METAR text: KVNY 211651Z 17005KT 10SM BKN021 OVC038 14/09 A3003 RMK AO2 SLP164 T01440089
Conditions at: KVNY (VAN NUYS , CA, US) observed 1651 UTC 21 April 2019
Temperature: 14.4°C (58°F)
Dewpoint: 8.9°C (48°F) [RH = 70%]
Pressure (altimeter): 30.03 inches Hg (1017.0 mb)
[Sea-level pressure: 1016.4 mb]
Winds: from the S (170 degrees) at 6 MPH (5 knots; 2.6 m/s)
Visibility: 10 or more miles (16+ km)
Ceiling: 2100 feet AGL
Clouds: broken clouds at 2100 feet AGL
overcast cloud deck at 3800 feet AGL
Weather: no significant weather observed at this time

METAR text: KVNY 211634Z 16007KT 10SM BKN021 BKN036 OVC042 15/09 A3003 RMK AO2 T01500089
Conditions at: KVNY (VAN NUYS , CA, US) observed 1634 UTC 21 April 2019
Temperature: 15.0°C (59°F)
Dewpoint: 8.9°C (48°F) [RH = 67%]
Pressure (altimeter): 30.03 inches Hg (1017.0 mb)
Winds: from the SSE (160 degrees) at 8 MPH (7 knots; 3.6 m/s)
Visibility: 10 or more miles (16+ km)
Ceiling: 2100 feet AGL
Clouds: broken clouds at 2100 feet AGL
broken clouds at 3600 feet AGL
overcast cloud deck at 4200 feet AGL
Weather: no significant weather observed at this time

METAR text: KVNY 211627Z 18004KT 10SM SCT021 OVC040 14/09 A3003 RMK AO2 T01440089
Conditions at: KVNY (VAN NUYS , CA, US) observed 1627 UTC 21 April 2019
Temperature: 14.4°C (58°F)
Dewpoint: 8.9°C (48°F) [RH = 70%]
Pressure (altimeter): 30.03 inches Hg (1017.0 mb)
Winds: from the S (180 degrees) at 5 MPH (4 knots; 2.1 m/s)
Visibility: 10 or more miles (16+ km)
Ceiling: 4000 feet AGL
Clouds: scattered clouds at 2100 feet AGL
overcast cloud deck at 4000 feet AGL
Weather: no significant weather observed at this time

METAR text: KVNY 211615Z 18006KT 10SM BKN021 OVC042 14/09 A3002 RMK AO2 T01390089
Conditions at: KVNY (VAN NUYS , CA, US) observed 1615 UTC 21 April 2019
Temperature: 13.9°C (57°F)
Dewpoint: 8.9°C (48°F) [RH = 72%]
Pressure (altimeter): 30.02 inches Hg (1016.7 mb)
Winds: from the S (180 degrees) at 7 MPH (6 knots; 3.1 m/s)
Visibility: 10 or more miles (16+ km)
Ceiling: 2100 feet AGL
Clouds: broken clouds at 2100 feet AGL
overcast cloud deck at 4200 feet AGL
Weather: no significant weather observed at this time

METAR text: KVNY 211551Z 18004KT 10SM SCT018 OVC041 14/09 A3002 RMK AO2 SLP161 T01390089
Conditions at: KVNY (VAN NUYS , CA, US) observed 1551 UTC 21 April 2019
Temperature: 13.9°C (57°F)
Dewpoint: 8.9°C (48°F) [RH = 72%]
Pressure (altimeter): 30.02 inches Hg (1016.7 mb)
[Sea-level pressure: 1016.1 mb]
Winds: from the S (180 degrees) at 5 MPH (4 knots; 2.1 m/s)
Visibility: 10 or more miles (16+ km)
Ceiling: 4100 feet AGL
Clouds: scattered clouds at 1800 feet AGL
overcast cloud deck at 4100 feet AGL
Weather: no significant weather observed at this time

METAR text: KVNY 211451Z 10004KT 10SM SCT032 OVC039 13/09 A3001 RMK AO2 SLP158 T01330094 53008
Conditions at: KVNY (VAN NUYS , CA, US) observed 1451 UTC 21 April 2019
Temperature: 13.3°C (56°F)
Dewpoint: 9.4°C (49°F) [RH = 77%]
Pressure (altimeter): 30.01 inches Hg (1016.3 mb)
[Sea-level pressure: 1015.8 mb]
Winds: from the E (100 degrees) at 5 MPH (4 knots; 2.1 m/s)
Visibility: 10 or more miles (16+ km)
Ceiling: 3900 feet AGL
Clouds: scattered clouds at 3200 feet AGL
overcast cloud deck at 3900 feet AGL
Weather: no significant weather observed at this time

METAR text: KVNY 211351Z 14003KT 10SM SCT028 BKN039 12/09 A3000 RMK AO2 SLP155 T01220089
Conditions at: KVNY (VAN NUYS , CA, US) observed 1351 UTC 21 April 2019
Temperature: 12.2°C (54°F)
Dewpoint: 8.9°C (48°F) [RH = 80%]
Pressure (altimeter): 30.00 inches Hg (1016.0 mb)
[Sea-level pressure: 1015.5 mb]
Winds: from the SE (140 degrees) at 3 MPH (3 knots; 1.5 m/s)
Visibility: 10 or more miles (16+ km)
Ceiling: 3900 feet AGL
Clouds: scattered clouds at 2800 feet AGL
broken clouds at 3900 feet AGL
Weather: no significant weather observed at this time

METAR text: KVNY 211325Z 13004KT 10SM BKN026 OVC039 12/09 A2999 RMK AO2 T01220089
Conditions at: KVNY (VAN NUYS , CA, US) observed 1325 UTC 21 April 2019
Temperature: 12.2°C (54°F)
Dewpoint: 8.9°C (48°F) [RH = 80%]
Pressure (altimeter): 29.99 inches Hg (1015.7 mb)
Winds: from the SE (130 degrees) at 5 MPH (4 knots; 2.1 m/s)
Visibility: 10 or more miles (16+ km)
Ceiling: 2600 feet AGL
Clouds: broken clouds at 2600 feet AGL
overcast cloud deck at 3900 feet AGL
Weather: no significant weather observed at this time

METAR text: KVNY 211300Z 00000KT 10SM SCT025 OVC039 12/09 A2999 RMK AO2 T01220089
Conditions at: KVNY (VAN NUYS , CA, US) observed 1300 UTC 21 April 2019
Temperature: 12.2°C (54°F)
Dewpoint: 8.9°C (48°F) [RH = 80%]
Pressure (altimeter): 29.99 inches Hg (1015.7 mb)
Winds: calm
Visibility: 10 or more miles (16+ km)
Ceiling: 3900 feet AGL
Clouds: scattered clouds at 2500 feet AGL
overcast cloud deck at 3900 feet AGL
Weather: no significant weather observed at this time

METAR text: KVNY 211251Z 00000KT 10SM BKN025 OVC039 12/09 A2999 RMK AO2 SLP152 T01170089
Conditions at: KVNY (VAN NUYS , CA, US) observed 1251 UTC 21 April 2019
Temperature: 11.7°C (53°F)
Dewpoint: 8.9°C (48°F) [RH = 83%]
Pressure (altimeter): 29.99 inches Hg (1015.7 mb)
[Sea-level pressure: 1015.2 mb]
Winds: calm
Visibility: 10 or more miles (16+ km)
Ceiling: 2500 feet AGL
Clouds: broken clouds at 2500 feet AGL
overcast cloud deck at 3900 feet AGL
Weather: no significant weather observed at this time

METAR text: KVNY 211206Z AUTO 16006KT 10SM BKN024 OVC038 13/10 A2998 RMK AO2 T01280100
Conditions at: KVNY (VAN NUYS , CA, US) observed 1206 UTC 21 April 2019
Temperature: 12.8°C (55°F)
Dewpoint: 10.0°C (50°F) [RH = 83%]
Pressure (altimeter): 29.98 inches Hg (1015.3 mb)
Winds: from the SSE (160 degrees) at 7 MPH (6 knots; 3.1 m/s)
Visibility: 10 or more miles (16+ km)
Ceiling: 2400 feet AGL
Clouds: broken clouds at 2400 feet AGL
overcast cloud deck at 3800 feet AGL
Weather: automated observation with no human augmentation;
there may or may not be significant weather present at this time

METAR text: KVNY 211151Z AUTO 15003KT 10SM SCT013 OVC038 12/09 A2999 RMK AO2 SLP150 T01220094 10150 20122 51002
Conditions at: KVNY (VAN NUYS , CA, US) observed 1151 UTC 21 April 2019
Temperature: 12.2°C (54°F)
Dewpoint: 9.4°C (49°F) [RH = 83%]
Pressure (altimeter): 29.99 inches Hg (1015.7 mb)
[Sea-level pressure: 1015.0 mb]
Winds: from the SSE (150 degrees) at 3 MPH (3 knots; 1.5 m/s)
Visibility: 10 or more miles (16+ km)
Ceiling: 3800 feet AGL
Clouds: scattered clouds at 1300 feet AGL
overcast cloud deck at 3800 feet AGL
Weather: automated observation with no human augmentation;
there may or may not be significant weather present at this time

METAR text: KVNY 211134Z AUTO 15005KT 10SM BKN013 OVC040 13/10 A2999 RMK AO2 T01280100
Conditions at: KVNY (VAN NUYS , CA, US) observed 1134 UTC 21 April 2019
Temperature: 12.8°C (55°F)
Dewpoint: 10.0°C (50°F) [RH = 83%]
Pressure (altimeter): 29.99 inches Hg (1015.7 mb)
Winds: from the SSE (150 degrees) at 6 MPH (5 knots; 2.6 m/s)
Visibility: 10 or more miles (16+ km)
Ceiling: 1300 feet AGL
Clouds: broken clouds at 1300 feet AGL
overcast cloud deck at 4000 feet AGL
Weather: automated observation with no human augmentation;
there may or may not be significant weather present at this time

METAR text: KVNY 211123Z AUTO 15004KT 10SM FEW015 SCT029 OVC039 13/10 A2999 RMK AO2 T01280100
Conditions at: KVNY (VAN NUYS , CA, US) observed 1123 UTC 21 April 2019
Temperature: 12.8°C (55°F)
Dewpoint: 10.0°C (50°F) [RH = 83%]
Pressure (altimeter): 29.99 inches Hg (1015.7 mb)
Winds: from the SSE (150 degrees) at 5 MPH (4 knots; 2.1 m/s)
Visibility: 10 or more miles (16+ km)
Ceiling: 3900 feet AGL
Clouds: few clouds at 1500 feet AGL
scattered clouds at 2900 feet AGL
overcast cloud deck at 3900 feet AGL
Weather: automated observation with no human augmentation;
there may or may not be significant weather present at this time

METAR text: KVNY 211103Z AUTO 15005KT 10SM SCT011 BKN021 OVC039 13/10 A2999 RMK AO2 T01280100
Conditions at: KVNY (VAN NUYS , CA, US) observed 1103 UTC 21 April 2019
Temperature: 12.8°C (55°F)
Dewpoint: 10.0°C (50°F) [RH = 83%]
Pressure (altimeter): 29.99 inches Hg (1015.7 mb)
Winds: from the SSE (150 degrees) at 6 MPH (5 knots; 2.6 m/s)
Visibility: 10 or more miles (16+ km)
Ceiling: 2100 feet AGL
Clouds: scattered clouds at 1100 feet AGL
broken clouds at 2100 feet AGL
overcast cloud deck at 3900 feet AGL
Weather: automated observation with no human augmentation;
there may or may not be significant weather present at this time

METAR text: KVNY 211051Z AUTO 16005KT 10SM BKN011 OVC039 13/10 A2999 RMK AO2 SLP150 T01280100
Conditions at: KVNY (VAN NUYS , CA, US) observed 1051 UTC 21 April 2019
Temperature: 12.8°C (55°F)
Dewpoint: 10.0°C (50°F) [RH = 83%]
Pressure (altimeter): 29.99 inches Hg (1015.7 mb)
[Sea-level pressure: 1015.0 mb]
Winds: from the SSE (160 degrees) at 6 MPH (5 knots; 2.6 m/s)
Visibility: 10 or more miles (16+ km)
Ceiling: 1100 feet AGL
Clouds: broken clouds at 1100 feet AGL
overcast cloud deck at 3900 feet AGL
Weather: automated observation with no human augmentation;
there may or may not be significant weather present at this time

METAR text: KVNY 211027Z AUTO 14006KT 10SM BKN011 OVC038 13/10 A2998 RMK AO2 T01330100
Conditions at: KVNY (VAN NUYS , CA, US) observed 1027 UTC 21 April 2019
Temperature: 13.3°C (56°F)
Dewpoint: 10.0°C (50°F) [RH = 80%]
Pressure (altimeter): 29.98 inches Hg (1015.3 mb)
Winds: from the SE (140 degrees) at 7 MPH (6 knots; 3.1 m/s)
Visibility: 10 or more miles (16+ km)
Ceiling: 1100 feet AGL
Clouds: broken clouds at 1100 feet AGL
overcast cloud deck at 3800 feet AGL
Weather: automated observation with no human augmentation;
there may or may not be significant weather present at this time

METAR text: KVNY 211012Z AUTO 13004KT 10SM SCT012 OVC039 13/10 A2998 RMK AO2 T01330100
Conditions at: KVNY (VAN NUYS , CA, US) observed 1012 UTC 21 April 2019
Temperature: 13.3°C (56°F)
Dewpoint: 10.0°C (50°F) [RH = 80%]
Pressure (altimeter): 29.98 inches Hg (1015.3 mb)
Winds: from the SE (130 degrees) at 5 MPH (4 knots; 2.1 m/s)
Visibility: 10 or more miles (16+ km)
Ceiling: 3900 feet AGL
Clouds: scattered clouds at 1200 feet AGL
overcast cloud deck at 3900 feet AGL
Weather: automated observation with no human augmentation;
there may or may not be significant weather present at this time

METAR text: KVNY 210951Z AUTO 14008KT 10SM BKN011 OVC035 13/11 A2998 RMK AO2 SLP147 T01330106
Conditions at: KVNY (VAN NUYS , CA, US) observed 0951 UTC 21 April 2019
Temperature: 13.3°C (56°F)
Dewpoint: 10.6°C (51°F) [RH = 84%]
Pressure (altimeter): 29.98 inches Hg (1015.3 mb)
[Sea-level pressure: 1014.7 mb]
Winds: from the SE (140 degrees) at 9 MPH (8 knots; 4.1 m/s)
Visibility: 10 or more miles (16+ km)
Ceiling: 1100 feet AGL
Clouds: broken clouds at 1100 feet AGL
overcast cloud deck at 3500 feet AGL
Weather: automated observation with no human augmentation;
there may or may not be significant weather present at this time

METAR text: KVNY 210851Z AUTO 13005KT 10SM OVC035 13/10 A2999 RMK AO2 SLP150 T01330100 50001
Conditions at: KVNY (VAN NUYS , CA, US) observed 0851 UTC 21 April 2019
Temperature: 13.3°C (56°F)
Dewpoint: 10.0°C (50°F) [RH = 80%]
Pressure (altimeter): 29.99 inches Hg (1015.7 mb)
[Sea-level pressure: 1015.0 mb]
Winds: from the SE (130 degrees) at 6 MPH (5 knots; 2.6 m/s)
Visibility: 10 or more miles (16+ km)
Ceiling: 3500 feet AGL
Clouds: overcast cloud deck at 3500 feet AGL
Weather: automated observation with no human augmentation;
there may or may not be significant weather present at this time

METAR text: KVNY 210751Z AUTO 12005KT 10SM SCT022 OVC035 14/10 A2999 RMK AO2 SLP150 T01390100 402000128
Conditions at: KVNY (VAN NUYS , CA, US) observed 0751 UTC 21 April 2019
Temperature: 13.9°C (57°F)
Dewpoint: 10.0°C (50°F) [RH = 77%]
Pressure (altimeter): 29.99 inches Hg (1015.7 mb)
[Sea-level pressure: 1015.0 mb]
Winds: from the ESE (120 degrees) at 6 MPH (5 knots; 2.6 m/s)
Visibility: 10 or more miles (16+ km)
Ceiling: 3500 feet AGL
Clouds: scattered clouds at 2200 feet AGL
overcast cloud deck at 3500 feet AGL
Weather: automated observation with no human augmentation;
there may or may not be significant weather present at this time

METAR text: KVNY 210729Z AUTO 16004KT 10SM SCT020 OVC035 14/09 A3000 RMK AO2 T01390094
Conditions at: KVNY (VAN NUYS , CA, US) observed 0729 UTC 21 April 2019
Temperature: 13.9°C (57°F)
Dewpoint: 9.4°C (49°F) [RH = 74%]
Pressure (altimeter): 30.00 inches Hg (1016.0 mb)
Winds: from the SSE (160 degrees) at 5 MPH (4 knots; 2.1 m/s)
Visibility: 10 or more miles (16+ km)
Ceiling: 3500 feet AGL
Clouds: scattered clouds at 2000 feet AGL
overcast cloud deck at 3500 feet AGL
Weather: automated observation with no human augmentation;
there may or may not be significant weather present at this time

METAR text: KVNY 210712Z AUTO 14004KT 10SM BKN020 OVC035 14/09 A3000 RMK AO2 T01440094
Conditions at: KVNY (VAN NUYS , CA, US) observed 0712 UTC 21 April 2019
Temperature: 14.4°C (58°F)
Dewpoint: 9.4°C (49°F) [RH = 72%]
Pressure (altimeter): 30.00 inches Hg (1016.0 mb)
Winds: from the SE (140 degrees) at 5 MPH (4 knots; 2.1 m/s)
Visibility: 10 or more miles (16+ km)
Ceiling: 2000 feet AGL
Clouds: broken clouds at 2000 feet AGL
overcast cloud deck at 3500 feet AGL
Weather: automated observation with no human augmentation;
there may or may not be significant weather present at this time

METAR text: KVNY 210651Z AUTO 17005KT 10SM FEW019 OVC036 14/10 A3000 RMK AO2 SLP153 T01390100
Conditions at: KVNY (VAN NUYS , CA, US) observed 0651 UTC 21 April 2019
Temperature: 13.9°C (57°F)
Dewpoint: 10.0°C (50°F) [RH = 77%]
Pressure (altimeter): 30.00 inches Hg (1016.0 mb)
[Sea-level pressure: 1015.3 mb]
Winds: from the S (170 degrees) at 6 MPH (5 knots; 2.6 m/s)
Visibility: 10 or more miles (16+ km)
Ceiling: 3600 feet AGL
Clouds: few clouds at 1900 feet AGL
overcast cloud deck at 3600 feet AGL
Weather: automated observation with no human augmentation;
there may or may not be significant weather present at this time

METAR text: KVNY 210616Z AUTO 18004KT 10SM SCT022 OVC035 14/09 A2999 RMK AO2 T01440094
Conditions at: KVNY (VAN NUYS , CA, US) observed 0616 UTC 21 April 2019
Temperature: 14.4°C (58°F)
Dewpoint: 9.4°C (49°F) [RH = 72%]
Pressure (altimeter): 29.99 inches Hg (1015.7 mb)
Winds: from the S (180 degrees) at 5 MPH (4 knots; 2.1 m/s)
Visibility: 10 or more miles (16+ km)
Ceiling: 3500 feet AGL
Clouds: scattered clouds at 2200 feet AGL
overcast cloud deck at 3500 feet AGL
Weather: automated observation with no human augmentation;
there may or may not be significant weather present at this time

METAR text: KVNY 210559Z AUTO 00000KT 10SM BKN022 OVC035 15/09 A2999 RMK AO2 T01500094
Conditions at: KVNY (VAN NUYS , CA, US) observed 0559 UTC 21 April 2019
Temperature: 15.0°C (59°F)
Dewpoint: 9.4°C (49°F) [RH = 69%]
Pressure (altimeter): 29.99 inches Hg (1015.7 mb)
Winds: calm
Visibility: 10 or more miles (16+ km)
Ceiling: 2200 feet AGL
Clouds: broken clouds at 2200 feet AGL
overcast cloud deck at 3500 feet AGL
Weather: automated observation with no human augmentation;
there may or may not be significant weather present at this time

METAR text: KVNY 210551Z AUTO 00000KT 10SM SCT022 OVC036 15/09 A2998 RMK AO2 SLP149 T01500094 10167 20144 50008
Conditions at: KVNY (VAN NUYS , CA, US) observed 0551 UTC 21 April 2019
Temperature: 15.0°C (59°F)
Dewpoint: 9.4°C (49°F) [RH = 69%]
Pressure (altimeter): 29.98 inches Hg (1015.3 mb)
[Sea-level pressure: 1014.9 mb]
Winds: calm
Visibility: 10 or more miles (16+ km)
Ceiling: 3600 feet AGL
Clouds: scattered clouds at 2200 feet AGL
overcast cloud deck at 3600 feet AGL
Weather: automated observation with no human augmentation;
there may or may not be significant weather present at this time

METAR text: KVNY 210451Z 00000KT 10SM FEW029 OVC037 15/10 A2998 RMK AO2 SLP150 T01500100
Conditions at: KVNY (VAN NUYS , CA, US) observed 0451 UTC 21 April 2019
Temperature: 15.0°C (59°F)
Dewpoint: 10.0°C (50°F) [RH = 72%]
Pressure (altimeter): 29.98 inches Hg (1015.3 mb)
[Sea-level pressure: 1015.0 mb]
Winds: calm
Visibility: 10 or more miles (16+ km)
Ceiling: 3700 feet AGL
Clouds: few clouds at 2900 feet AGL
overcast cloud deck at 3700 feet AGL
Weather: no significant weather observed at this time

METAR text: KVNY 210351Z 30004KT 10SM OVC035 15/10 A2998 RMK AO2 SLP146 T01500100
Conditions at: KVNY (VAN NUYS , CA, US) observed 0351 UTC 21 April 2019
Temperature: 15.0°C (59°F)
Dewpoint: 10.0°C (50°F) [RH = 72%]
Pressure (altimeter): 29.98 inches Hg (1015.3 mb)
[Sea-level pressure: 1014.6 mb]
Winds: from the WNW (300 degrees) at 5 MPH (4 knots; 2.1 m/s)
Visibility: 10 or more miles (16+ km)
Ceiling: 3500 feet AGL
Clouds: overcast cloud deck at 3500 feet AGL
Weather: no significant weather observed at this time

METAR text: KVNY 210335Z 00000KT 10SM SCT027 OVC034 15/10 A2997 RMK AO2 T01500100
Conditions at: KVNY (VAN NUYS , CA, US) observed 0335 UTC 21 April 2019
Temperature: 15.0°C (59°F)
Dewpoint: 10.0°C (50°F) [RH = 72%]
Pressure (altimeter): 29.97 inches Hg (1015.0 mb)
Winds: calm
Visibility: 10 or more miles (16+ km)
Ceiling: 3400 feet AGL
Clouds: scattered clouds at 2700 feet AGL
overcast cloud deck at 3400 feet AGL
Weather: no significant weather observed at this time

Forecast for: KVNY (VAN NUYS , CA, US)
Text: KVNY 221125Z 2212/2312 VRB03KT P6SM SKC
Forecast period: 1200 to 1700 UTC 22 April 2019
Forecast type: FROM: standard forecast or significant change
Winds: variable direction winds at 3 MPH (3 knots; 1.5 m/s)
Visibility: 6 or more miles 10+ km)
Clouds: clear skies
Weather: no significant weather forecast for this period
Text: FM221700 36010KT P6SM SKC
Forecast period: 1700 UTC 22 April 2019 to 0300 UTC 23 April 2019
Forecast type: FROM: standard forecast or significant change
Winds: from the N (360 degrees) at 12 MPH (10 knots; 5.1 m/s)
Visibility: 6 or more miles 10+ km)
Clouds: clear skies
Weather: no significant weather forecast for this period
Text: FM230300 04008KT P6SM SKC
Forecast period: 0300 to 0700 UTC 23 April 2019
Forecast type: FROM: standard forecast or significant change
Winds: from the NE (40 degrees) at 9 MPH (8 knots; 4.1 m/s)
Visibility: 6 or more miles 10+ km)
Clouds: clear skies
Weather: no significant weather forecast for this period
Text: FM230700 36008KT P6SM SKC
Forecast period: 0700 to 1200 UTC 23 April 2019
Forecast type: FROM: standard forecast or significant change
Winds: from the N (360 degrees) at 9 MPH (8 knots; 4.1 m/s)
Visibility: 6 or more miles 10+ km)
Clouds: clear skies
Weather: no significant weather forecast for this period